Terminal Aerodrome Forecast
Issued by NWS Charleston, WV

Current Version | Previous Version | Graphics & Text | Print | Product List | Glossary On
Versions: 1 2 3 4 5 6 7 8 9 10 11 12 13 14 15 16 17 18 19 20 21
000
FTUS41 KRLX 091135
TAFCRW
TAF
KCRW 091135Z 0912/1012 28007KT P6SM -SHSN SCT025 OVC040
     FM091400 27006KT P6SM -SHSN BKN025 OVC040
     FM091800 26007KT P6SM BKN035=

USA.gov is the U.S. government's official web portal to all federal, state and local government web resources and services.